createdAt,value
2023-04-30T00:00:02.701Z,2.17
2023-04-30T00:02:31.357Z,2.30
2023-04-30T00:04:58.604Z,2.28
2023-04-30T00:07:25.799Z,2.17
2023-04-30T00:09:53.305Z,2.13
2023-04-30T00:12:20.861Z,2.00
2023-04-30T00:14:49.099Z,2.10
2023-04-30T00:17:16.670Z,2.10
2023-04-30T00:19:45.192Z,2.05
2023-04-30T00:22:12.467Z,2.10
2023-04-30T00:24:39.732Z,2.30
2023-04-30T00:27:06.990Z,2.10
2023-04-30T00:29:34.197Z,2.20
2023-04-30T00:32:01.510Z,2.15
2023-04-30T00:34:28.810Z,2.03
2023-04-30T00:36:57.315Z,2.10
2023-04-30T00:39:24.575Z,2.20
2023-04-30T00:41:51.770Z,2.20
2023-04-30T00:44:18.982Z,2.10
2023-04-30T00:46:46.270Z,2.40
2023-04-30T00:49:13.451Z,2.22
2023-04-30T00:51:41.151Z,2.25
2023-04-30T00:54:09.654Z,2.10
2023-04-30T00:56:36.899Z,1.90
2023-04-30T00:59:04.174Z,2.00
2023-04-30T01:01:31.843Z,2.00
2023-04-30T01:04:00.845Z,2.10
2023-04-30T01:06:28.087Z,2.20
2023-04-30T01:08:57.144Z,2.30
2023-04-30T01:11:27.498Z,2.00
2023-04-30T01:13:56.499Z,2.15
2023-04-30T01:16:24.203Z,2.40
2023-04-30T01:18:52.988Z,2.30
2023-04-30T01:21:20.825Z,2.00
2023-04-30T01:23:51.101Z,1.95
2023-04-30T01:26:21.049Z,2.10
2023-04-30T01:28:49.519Z,2.40
2023-04-30T01:31:17.372Z,2.10
2023-04-30T01:33:44.611Z,2.10
2023-04-30T01:36:19.104Z,2.00
2023-04-30T01:38:50.337Z,2.03
2023-04-30T01:41:19.264Z,2.30
2023-04-30T01:43:46.965Z,2.30
2023-04-30T01:46:18.269Z,2.10
2023-04-30T01:48:48.539Z,2.22
2023-04-30T01:51:16.265Z,2.25
2023-04-30T01:53:44.534Z,2.00
2023-04-30T01:56:12.164Z,2.10
2023-04-30T01:58:39.431Z,2.05
2023-04-30T02:01:06.631Z,2.30
2023-04-30T02:03:35.338Z,2.30
2023-04-30T02:06:02.816Z,2.10
2023-04-30T02:08:30.184Z,2.00
2023-04-30T02:10:57.382Z,2.20
2023-04-30T02:13:24.677Z,2.10
2023-04-30T02:15:51.907Z,2.10
2023-04-30T02:18:19.216Z,2.17
2023-04-30T02:20:47.713Z,2.08
2023-04-30T02:23:14.906Z,2.22
2023-04-30T02:25:42.090Z,1.95
2023-04-30T02:28:09.365Z,2.05
2023-04-30T02:30:36.572Z,1.95
2023-04-30T02:33:03.912Z,2.47
2023-04-30T02:35:31.163Z,2.13
2023-04-30T02:37:59.688Z,2.15
2023-04-30T02:40:26.894Z,2.00
2023-04-30T02:42:56.163Z,2.10
2023-04-30T02:45:23.376Z,1.90
2023-04-30T02:47:50.662Z,2.20
2023-04-30T02:50:17.993Z,2.17
2023-04-30T02:52:45.432Z,2.17
2023-04-30T02:55:13.967Z,2.20
2023-04-30T02:57:41.383Z,2.05
2023-04-30T03:00:09.114Z,2.00
2023-04-30T03:02:36.427Z,2.20
2023-04-30T03:05:04.142Z,2.20
2023-04-30T03:07:31.413Z,2.15
2023-04-30T03:09:58.633Z,1.90
2023-04-30T03:12:27.164Z,2.38
2023-04-30T03:14:54.372Z,2.10
2023-04-30T03:17:21.686Z,2.10
2023-04-30T03:19:48.980Z,2.33
2023-04-30T03:22:16.202Z,1.88
2023-04-30T03:24:43.401Z,1.95
2023-04-30T03:27:10.611Z,2.10
2023-04-30T03:29:39.132Z,2.40
2023-04-30T03:32:06.395Z,2.10
2023-04-30T03:34:33.636Z,1.95
2023-04-30T03:37:01.701Z,2.30
2023-04-30T03:39:28.914Z,1.90
2023-04-30T03:41:56.116Z,2.20
2023-04-30T03:44:23.422Z,1.90
2023-04-30T03:46:51.955Z,1.92
2023-04-30T03:49:19.176Z,2.17
2023-04-30T03:51:46.854Z,1.73
2023-04-30T03:54:14.046Z,1.80
2023-04-30T03:56:41.246Z,1.98
2023-04-30T03:59:08.467Z,1.75
2023-04-30T04:01:35.698Z,1.75
2023-04-30T04:04:04.566Z,1.90
2023-04-30T04:06:32.239Z,1.70
2023-04-30T04:08:59.529Z,2.00
2023-04-30T04:11:26.741Z,1.90
2023-04-30T04:13:53.951Z,1.67
2023-04-30T04:16:21.748Z,2.00
2023-04-30T04:18:49.042Z,1.80
2023-04-30T04:21:17.555Z,1.67
2023-04-30T04:23:44.756Z,1.77
2023-04-30T04:26:12.645Z,1.60
2023-04-30T04:28:39.953Z,1.73
2023-04-30T04:31:07.791Z,1.95
2023-04-30T04:33:35.008Z,1.60
2023-04-30T04:36:02.274Z,1.50
2023-04-30T04:38:30.803Z,1.98
2023-04-30T04:40:58.017Z,2.08
2023-04-30T04:43:25.340Z,1.80
2023-04-30T04:45:53.075Z,1.83
2023-04-30T04:48:20.332Z,1.92
2023-04-30T04:50:47.540Z,1.85
2023-04-30T04:53:14.763Z,1.70
2023-04-30T04:55:43.305Z,1.77
2023-04-30T04:58:10.922Z,1.95
2023-04-30T05:00:39.400Z,1.70
2023-04-30T05:03:06.695Z,2.13
2023-04-30T05:05:33.979Z,1.52
2023-04-30T05:08:01.184Z,1.70
2023-04-30T05:10:28.417Z,2.00
2023-04-30T05:12:56.957Z,1.92
2023-04-30T05:15:24.181Z,2.20
2023-04-30T05:17:51.422Z,2.20
2023-04-30T05:20:18.846Z,2.63
2023-04-30T05:22:46.039Z,2.42
2023-04-30T05:25:13.594Z,2.20
2023-04-30T05:27:40.855Z,2.65
2023-04-30T05:30:10.412Z,2.50
2023-04-30T05:32:37.640Z,2.65
2023-04-30T05:35:05.204Z,3.08
2023-04-30T05:37:32.404Z,2.80
2023-04-30T05:39:59.619Z,2.83
2023-04-30T05:42:26.820Z,3.03
2023-04-30T05:44:54.319Z,3.33
2023-04-30T05:47:22.818Z,3.20
2023-04-30T05:49:50.074Z,3.40
2023-04-30T05:52:17.773Z,3.10
2023-04-30T05:54:45.005Z,3.10
2023-04-30T05:57:12.226Z,2.90
2023-04-30T05:59:39.452Z,3.30
2023-04-30T06:02:06.777Z,3.13
2023-04-30T06:04:35.390Z,3.22
2023-04-30T06:07:02.642Z,2.80
2023-04-30T06:09:29.921Z,3.05
2023-04-30T06:11:57.132Z,2.90
2023-04-30T06:14:24.767Z,3.05
2023-04-30T06:16:52.171Z,3.10
2023-04-30T06:19:19.534Z,3.03
2023-04-30T06:21:48.068Z,2.85
2023-04-30T06:24:15.321Z,2.50
2023-04-30T06:26:42.554Z,2.63
2023-04-30T06:29:09.782Z,2.70
2023-04-30T06:31:37.042Z,2.67
2023-04-30T06:34:04.274Z,2.47
2023-04-30T06:36:31.499Z,2.58
2023-04-30T06:39:00.016Z,2.60
2023-04-30T06:41:27.216Z,2.83
2023-04-30T06:43:54.497Z,2.25
2023-04-30T06:46:21.855Z,2.10
2023-04-30T06:48:49.152Z,2.50
2023-04-30T06:51:16.483Z,2.40
2023-04-30T06:53:43.677Z,2.53
2023-04-30T06:56:12.206Z,2.08
2023-04-30T06:58:39.436Z,2.30
2023-04-30T07:01:06.679Z,2.10
2023-04-30T07:03:34.863Z,2.03
2023-04-30T07:06:02.213Z,1.85
2023-04-30T07:08:29.436Z,2.25
2023-04-30T07:10:56.996Z,2.20
2023-04-30T07:13:25.531Z,1.98
2023-04-30T07:15:52.804Z,2.20
2023-04-30T07:18:20.430Z,2.50
2023-04-30T07:20:47.629Z,2.22
2023-04-30T07:23:14.855Z,1.92
2023-04-30T07:25:42.155Z,2.25
2023-04-30T07:28:09.367Z,2.05
2023-04-30T07:30:37.972Z,2.03
2023-04-30T07:33:05.275Z,1.85
2023-04-30T07:35:32.588Z,2.25
2023-04-30T07:37:59.762Z,2.05
2023-04-30T07:40:35.356Z,2.20
2023-04-30T07:43:03.255Z,2.45
2023-04-30T07:45:31.236Z,2.17
2023-04-30T07:47:59.773Z,2.00
2023-04-30T07:50:28.605Z,2.00
2023-04-30T07:52:55.799Z,1.75
2023-04-30T07:55:23.056Z,1.70
2023-04-30T07:57:50.245Z,2.10
2023-04-30T08:00:17.510Z,2.20
2023-04-30T08:02:46.039Z,2.03
2023-04-30T08:05:14.742Z,1.90
2023-04-30T08:07:44.200Z,2.50
2023-04-30T08:10:11.530Z,2.05
2023-04-30T08:12:38.858Z,2.10
2023-04-30T08:15:06.514Z,2.13
2023-04-30T08:17:33.759Z,2.15
2023-04-30T08:20:01.097Z,1.90
2023-04-30T08:22:29.693Z,2.20
2023-04-30T08:24:56.890Z,1.77
2023-04-30T08:27:24.078Z,2.50
2023-04-30T08:29:51.353Z,1.90
2023-04-30T08:32:19.722Z,2.05
2023-04-30T08:34:47.165Z,2.20
2023-04-30T08:37:14.382Z,2.35
2023-04-30T08:39:42.894Z,2.42
2023-04-30T08:42:10.393Z,2.22
2023-04-30T08:44:39.510Z,1.90
2023-04-30T08:47:06.711Z,2.22
2023-04-30T08:49:33.947Z,1.98
2023-04-30T08:52:01.146Z,1.90
2023-04-30T08:54:28.630Z,2.20
2023-04-30T08:56:57.119Z,2.20
2023-04-30T08:59:24.297Z,2.45
2023-04-30T09:01:53.621Z,1.95
2023-04-30T09:04:21.349Z,2.17
2023-04-30T09:06:48.591Z,1.90
2023-04-30T09:09:16.188Z,2.10
2023-04-30T09:11:43.513Z,2.42
2023-04-30T09:14:12.728Z,1.90
2023-04-30T09:16:46.141Z,2.07
2023-04-30T09:19:23.442Z,2.25
2023-04-30T09:21:50.725Z,1.90
2023-04-30T09:24:18.656Z,2.10
2023-04-30T09:26:46.943Z,2.00
2023-04-30T09:29:15.557Z,2.03
2023-04-30T09:31:43.722Z,2.40
2023-04-30T09:34:10.965Z,2.08
2023-04-30T09:36:38.166Z,2.20
2023-04-30T09:39:10.832Z,2.13
2023-04-30T09:41:39.296Z,1.98
2023-04-30T09:44:06.533Z,1.65
2023-04-30T09:46:37.058Z,2.00
2023-04-30T09:49:07.089Z,1.88
2023-04-30T09:51:35.542Z,2.10
2023-04-30T09:54:03.125Z,2.10
2023-04-30T09:56:30.329Z,1.80
2023-04-30T09:58:58.440Z,1.75
2023-04-30T10:01:26.879Z,1.95
2023-04-30T10:03:55.648Z,2.00
2023-04-30T10:06:23.248Z,1.70
2023-04-30T10:08:52.032Z,1.85
2023-04-30T10:11:19.763Z,1.67
2023-04-30T10:13:48.319Z,1.67
2023-04-30T10:16:18.509Z,1.65
2023-04-30T10:18:46.645Z,1.80
2023-04-30T10:21:15.430Z,2.00
2023-04-30T10:23:43.529Z,1.90
2023-04-30T10:26:12.161Z,1.83
2023-04-30T10:28:40.558Z,1.80
2023-04-30T10:31:08.354Z,2.03
2023-04-30T10:33:36.089Z,1.98
2023-04-30T10:36:04.217Z,1.65
2023-04-30T10:38:33.257Z,1.83
2023-04-30T10:41:01.205Z,1.95
2023-04-30T10:43:28.560Z,2.00
2023-04-30T10:45:56.946Z,1.90
2023-04-30T10:48:26.795Z,1.88
2023-04-30T10:50:54.448Z,1.70
2023-04-30T10:53:22.864Z,1.90
2023-04-30T10:55:53.753Z,1.50
2023-04-30T10:58:24.404Z,1.80
2023-04-30T11:00:52.094Z,1.60
2023-04-30T11:03:19.278Z,1.70
2023-04-30T11:05:46.640Z,1.92
2023-04-30T11:08:13.876Z,1.90
2023-04-30T11:10:42.463Z,1.80
2023-04-30T11:13:11.038Z,2.00
2023-04-30T11:15:40.925Z,1.60
2023-04-30T11:18:08.380Z,1.38
2023-04-30T11:20:36.101Z,1.48
2023-04-30T11:23:09.934Z,1.95
2023-04-30T11:25:40.386Z,1.60
2023-04-30T11:28:07.658Z,1.42
2023-04-30T11:30:36.218Z,1.70
2023-04-30T11:33:03.503Z,1.60
2023-04-30T11:35:30.770Z,1.70
2023-04-30T11:37:58.021Z,1.67
2023-04-30T11:40:26.769Z,1.60
2023-04-30T11:42:53.969Z,1.90
2023-04-30T11:45:23.188Z,1.58
2023-04-30T11:47:52.018Z,1.67
2023-04-30T11:50:21.165Z,1.58
2023-04-30T11:52:49.849Z,1.70
2023-04-30T11:55:17.503Z,1.70
2023-04-30T11:57:44.852Z,1.58
2023-04-30T12:00:12.622Z,1.83
2023-04-30T12:02:40.486Z,1.60
2023-04-30T12:05:15.499Z,1.80
2023-04-30T12:07:46.507Z,1.60
2023-04-30T12:10:13.779Z,1.55
2023-04-30T12:12:41.278Z,2.15
2023-04-30T12:15:12.098Z,1.83
2023-04-30T12:17:39.320Z,1.90
2023-04-30T12:20:07.151Z,1.67
2023-04-30T12:22:35.680Z,1.60
2023-04-30T12:25:06.232Z,1.70
2023-04-30T12:27:35.248Z,1.60
2023-04-30T12:30:03.961Z,1.67
2023-04-30T12:32:31.215Z,1.60
2023-04-30T12:34:58.946Z,1.63
2023-04-30T12:37:27.394Z,1.50
2023-04-30T12:39:57.556Z,1.80
2023-04-30T12:42:25.701Z,1.70
2023-04-30T12:44:52.921Z,1.70
2023-04-30T12:47:20.563Z,1.67
2023-04-30T12:49:47.798Z,1.80
2023-04-30T12:52:15.531Z,1.60
2023-04-30T12:54:42.759Z,1.70
2023-04-30T12:57:11.860Z,1.80
2023-04-30T12:59:39.519Z,1.80
2023-04-30T13:02:07.932Z,1.63
2023-04-30T13:04:35.853Z,1.90
2023-04-30T13:07:03.132Z,1.75
2023-04-30T13:09:30.410Z,1.70
2023-04-30T13:11:57.612Z,1.58
2023-04-30T13:14:26.182Z,1.88
2023-04-30T13:16:53.504Z,1.67
2023-04-30T13:19:21.178Z,1.77
2023-04-30T13:21:48.385Z,1.90
2023-04-30T13:24:15.977Z,1.60
2023-04-30T13:26:43.200Z,1.73
2023-04-30T13:31:36.216Z,1.60
2023-04-30T13:34:03.572Z,1.52
2023-04-30T13:36:30.772Z,1.80
2023-04-30T13:38:58.296Z,1.80
2023-04-30T13:41:26.349Z,1.50
2023-04-30T13:43:53.630Z,1.70
2023-04-30T13:46:20.877Z,1.88
2023-04-30T13:48:51.685Z,1.75
2023-04-30T13:51:18.886Z,1.85
2023-04-30T13:53:46.131Z,1.92
2023-04-30T13:56:15.195Z,1.92
2023-04-30T13:58:42.429Z,1.92
2023-04-30T14:01:10.362Z,1.60
2023-04-30T14:03:38.031Z,1.75
2023-04-30T14:06:06.696Z,1.90
2023-04-30T14:08:34.028Z,1.50
2023-04-30T14:11:01.604Z,1.70
2023-04-30T14:13:29.473Z,1.88
2023-04-30T14:15:56.845Z,1.73
2023-04-30T14:18:24.124Z,1.75
2023-04-30T14:20:51.338Z,1.77
2023-04-30T14:23:19.940Z,2.17
2023-04-30T14:25:47.537Z,1.60
2023-04-30T14:28:14.760Z,1.70
2023-04-30T14:30:42.517Z,1.52
2023-04-30T14:33:12.190Z,2.15
2023-04-30T14:35:39.597Z,1.70
2023-04-30T14:38:06.841Z,1.60
2023-04-30T14:40:35.526Z,1.70
2023-04-30T14:43:02.721Z,1.65
2023-04-30T14:45:29.971Z,1.88
2023-04-30T14:47:57.251Z,1.92
2023-04-30T14:50:24.676Z,1.67
2023-04-30T14:52:51.883Z,1.63
2023-04-30T14:55:19.125Z,1.83
2023-04-30T14:57:47.621Z,1.90
2023-04-30T15:00:16.044Z,1.80
2023-04-30T15:02:43.341Z,1.80
2023-04-30T15:05:10.916Z,1.67
2023-04-30T15:07:38.130Z,1.80
2023-04-30T15:10:06.505Z,1.95
2023-04-30T15:12:34.358Z,2.10
2023-04-30T15:15:04.115Z,1.70
2023-04-30T15:17:31.816Z,1.60
2023-04-30T15:20:00.983Z,1.83
2023-04-30T15:22:28.210Z,1.93
2023-04-30T15:24:56.346Z,1.70
2023-04-30T15:27:23.950Z,1.67
2023-04-30T15:29:51.145Z,1.70
2023-04-30T15:32:19.677Z,1.50
2023-04-30T15:34:46.873Z,1.70
2023-04-30T15:37:14.087Z,1.95
2023-04-30T15:39:41.361Z,1.50
2023-04-30T15:42:08.537Z,1.98
2023-04-30T15:44:35.778Z,1.83
2023-04-30T15:47:03.333Z,1.60
2023-04-30T15:49:31.953Z,1.70
2023-04-30T15:51:59.219Z,1.73
2023-04-30T15:54:26.408Z,2.00
2023-04-30T15:56:53.722Z,1.67
2023-04-30T15:59:20.924Z,1.40
2023-04-30T16:01:48.206Z,1.70
2023-04-30T16:04:15.517Z,1.40
2023-04-30T16:06:44.113Z,1.77
2023-04-30T16:09:12.306Z,1.42
2023-04-30T16:11:40.045Z,1.80
2023-04-30T16:14:07.374Z,1.80
2023-04-30T16:16:34.656Z,1.80
2023-04-30T16:19:01.935Z,2.00
2023-04-30T16:21:29.175Z,1.40
2023-04-30T16:23:57.698Z,1.70
2023-04-30T16:26:25.310Z,1.60
2023-04-30T16:28:52.490Z,1.52
2023-04-30T16:31:22.670Z,2.10
2023-04-30T16:33:49.903Z,1.60
2023-04-30T16:36:17.409Z,1.80
2023-04-30T16:38:46.253Z,1.45
2023-04-30T16:41:15.079Z,1.90
2023-04-30T16:43:42.899Z,2.03
2023-04-30T16:46:10.496Z,1.70
2023-04-30T16:48:37.762Z,1.95
2023-04-30T16:51:05.144Z,1.98
2023-04-30T16:53:32.361Z,1.95
2023-04-30T16:55:59.761Z,1.65
2023-04-30T16:58:28.291Z,1.88
2023-04-30T17:00:56.095Z,1.60
2023-04-30T17:03:23.636Z,1.80
2023-04-30T17:05:51.401Z,1.60
2023-04-30T17:08:19.317Z,2.00
2023-04-30T17:10:47.536Z,1.83
2023-04-30T17:13:14.807Z,1.77
2023-04-30T17:15:43.633Z,1.70
2023-04-30T17:18:11.640Z,1.80
2023-04-30T17:20:39.167Z,1.92
2023-04-30T17:23:06.427Z,1.67
2023-04-30T17:25:33.682Z,1.80
2023-04-30T17:28:01.293Z,1.70
2023-04-30T17:30:28.655Z,1.70
2023-04-30T17:32:58.510Z,1.70
2023-04-30T17:35:25.777Z,1.77
2023-04-30T17:37:52.976Z,1.80
2023-04-30T17:40:20.224Z,1.80
2023-04-30T17:42:47.391Z,1.70
2023-04-30T17:45:15.248Z,1.80
2023-04-30T17:47:42.489Z,1.95
2023-04-30T17:50:11.207Z,1.63
2023-04-30T17:52:39.042Z,1.90
2023-04-30T17:55:06.707Z,2.05
2023-04-30T17:57:33.932Z,1.80
2023-04-30T18:00:01.181Z,1.80
2023-04-30T18:02:28.438Z,1.83
2023-04-30T18:04:55.675Z,1.73
2023-04-30T18:07:24.280Z,1.95
2023-04-30T18:09:52.517Z,1.77
2023-04-30T18:12:19.754Z,1.90
2023-04-30T18:14:46.965Z,2.08
2023-04-30T18:17:15.077Z,2.17
2023-04-30T18:19:44.344Z,2.10
2023-04-30T18:22:12.195Z,2.13
2023-04-30T18:24:40.800Z,1.95
2023-04-30T18:27:08.302Z,2.10
2023-04-30T18:29:35.595Z,2.10
2023-04-30T18:32:02.971Z,2.10
2023-04-30T18:34:30.193Z,1.83
2023-04-30T18:36:57.414Z,2.00
2023-04-30T18:39:24.696Z,1.80
2023-04-30T18:41:53.244Z,1.60
2023-04-30T18:44:20.490Z,2.00
2023-04-30T18:46:47.662Z,1.80
2023-04-30T18:49:15.443Z,1.98
2023-04-30T18:51:42.623Z,1.85
2023-04-30T18:54:09.814Z,1.95
2023-04-30T18:56:37.548Z,1.85
2023-04-30T18:59:06.055Z,1.95
2023-04-30T19:01:33.284Z,1.92
2023-04-30T19:04:00.654Z,1.77
2023-04-30T19:06:28.097Z,2.00
2023-04-30T19:08:55.835Z,2.22
2023-04-30T19:11:23.031Z,1.90
2023-04-30T19:13:50.384Z,1.85
2023-04-30T19:16:19.121Z,2.35
2023-04-30T19:18:46.319Z,1.90
2023-04-30T19:21:14.720Z,1.90
2023-04-30T19:23:42.342Z,2.00
2023-04-30T19:26:09.570Z,1.83
2023-04-30T19:28:36.751Z,2.22
2023-04-30T19:31:05.777Z,1.90
2023-04-30T19:33:38.229Z,2.10
2023-04-30T19:36:05.840Z,2.20
2023-04-30T19:38:33.043Z,1.75
2023-04-30T19:41:00.643Z,1.85
2023-04-30T19:43:27.846Z,1.83
2023-04-30T19:45:55.352Z,2.03
2023-04-30T19:48:22.766Z,2.10
2023-04-30T19:50:53.102Z,1.77
2023-04-30T19:53:21.112Z,1.80
2023-04-30T19:55:48.317Z,2.08
2023-04-30T19:58:15.533Z,2.20
2023-04-30T20:00:44.258Z,1.95
2023-04-30T20:03:11.680Z,2.30
2023-04-30T20:05:39.301Z,1.98
2023-04-30T20:08:08.054Z,1.98
2023-04-30T20:10:36.101Z,1.80
2023-04-30T20:13:03.365Z,2.13
2023-04-30T20:15:30.682Z,1.85
2023-04-30T20:17:58.264Z,2.10
2023-04-30T20:20:25.537Z,1.65
2023-04-30T20:22:53.420Z,2.03
2023-04-30T20:25:22.578Z,2.00
2023-04-30T20:27:49.802Z,1.85
2023-04-30T20:30:17.196Z,2.00
2023-04-30T20:32:44.707Z,2.13
2023-04-30T20:35:11.915Z,1.90
2023-04-30T20:37:39.095Z,1.85
2023-04-30T20:40:08.488Z,2.20
2023-04-30T20:42:38.571Z,1.60
2023-04-30T20:45:06.294Z,2.08
2023-04-30T20:47:33.528Z,2.10
2023-04-30T20:50:00.938Z,2.10
2023-04-30T20:52:28.143Z,2.10
2023-04-30T20:54:55.401Z,2.05
2023-04-30T20:57:22.597Z,2.03
2023-04-30T20:59:51.100Z,2.33
2023-04-30T21:02:18.347Z,2.30
2023-04-30T21:04:45.622Z,2.50
2023-04-30T21:07:12.804Z,1.98
2023-04-30T21:09:40.880Z,2.20
2023-04-30T21:12:08.068Z,2.20
2023-04-30T21:14:35.484Z,2.58
2023-04-30T21:17:04.251Z,2.20
2023-04-30T21:19:33.450Z,2.17
2023-04-30T21:22:00.958Z,2.40
2023-04-30T21:24:30.845Z,2.08
2023-04-30T21:26:58.756Z,2.13
2023-04-30T21:29:26.366Z,2.10
2023-04-30T21:31:54.981Z,2.10
2023-04-30T21:34:23.558Z,2.20
2023-04-30T21:36:51.029Z,2.30
2023-04-30T21:39:18.246Z,2.30
2023-04-30T21:41:45.430Z,2.08
2023-04-30T21:44:12.648Z,2.15
2023-04-30T21:46:39.904Z,2.00
2023-04-30T21:49:07.188Z,2.20
2023-04-30T21:51:36.317Z,2.40
2023-04-30T21:54:03.517Z,2.13
2023-04-30T21:56:30.796Z,2.10
2023-04-30T21:58:57.991Z,2.05
2023-04-30T22:01:27.615Z,1.88
2023-04-30T22:03:54.940Z,2.10
2023-04-30T22:06:22.259Z,2.22
2023-04-30T22:08:50.861Z,2.30
2023-04-30T22:11:18.282Z,2.15
2023-04-30T22:13:45.494Z,2.47
2023-04-30T22:16:12.751Z,2.33
2023-04-30T22:18:40.510Z,2.10
2023-04-30T22:21:07.710Z,2.25
2023-04-30T22:23:35.133Z,2.25
2023-04-30T22:26:06.929Z,1.85
2023-04-30T22:28:34.127Z,2.40
2023-04-30T22:31:01.331Z,2.33
2023-04-30T22:33:28.571Z,2.17
2023-04-30T22:35:55.957Z,2.28
2023-04-30T22:38:23.245Z,2.28
2023-04-30T22:40:50.433Z,2.42
2023-04-30T22:43:18.966Z,2.20
2023-04-30T22:45:46.179Z,2.53
2023-04-30T22:48:13.479Z,2.15
2023-04-30T22:50:40.710Z,2.45
2023-04-30T22:53:07.956Z,2.20
2023-04-30T22:55:35.978Z,2.20
2023-04-30T22:58:03.177Z,2.17
2023-04-30T23:00:31.678Z,2.20
2023-04-30T23:02:58.853Z,2.25
2023-04-30T23:05:26.217Z,2.28
2023-04-30T23:07:53.970Z,2.47
2023-04-30T23:10:21.167Z,2.10
2023-04-30T23:12:48.343Z,2.20
2023-04-30T23:15:15.550Z,2.22
2023-04-30T23:17:44.466Z,2.15
2023-04-30T23:20:11.900Z,2.10
2023-04-30T23:22:39.108Z,2.17
2023-04-30T23:25:06.845Z,2.08
2023-04-30T23:27:34.024Z,2.00
2023-04-30T23:30:01.352Z,2.15
2023-04-30T23:32:28.587Z,2.35
2023-04-30T23:34:57.131Z,2.08
2023-04-30T23:37:24.372Z,2.15
2023-04-30T23:39:51.583Z,2.28
2023-04-30T23:42:18.779Z,2.17
2023-04-30T23:44:46.444Z,1.98
2023-04-30T23:47:13.636Z,2.00
2023-04-30T23:49:40.842Z,2.38
2023-04-30T23:52:09.533Z,2.35
2023-04-30T23:54:36.776Z,2.35
2023-04-30T23:57:03.965Z,2.13
2023-04-30T23:59:31.162Z,2.13
